Terminal Aerodrome Forecast
Issued by NWS Duluth, MN

Home | Current Version | Previous Version | Text Only | Print | Product List | Glossary On
Versions: 1 2 3 4 5 6 7 8 9 10 11 12 13 14 15 16 17 18 19 20 21 22 23 24 25 26 27 28 29 30 31 32
000
FTUS43 KDLH 031600 AAC
TAFINL
TAF AMD
KINL 031605Z 0316/0412 29014G22KT 1SM -SN OVC015
      TEMPO 0316/0318 4SM -SN OVC025
     FM031800 30016G26KT 6SM BLSN OVC035
     FM040500 28012KT P6SM SKC=

USA.gov is the U.S. government's official web portal to all federal, state and local government web resources and services.